Time;durP1;ratioP1;P1;durP2;ratioP2;P2;SDS_P1;SDS_P2;PMS_P1;PMS_P2;Temp;Humidity;BMP_temperature;BMP_pressure;BME280_temperature;BME280_humidity;BME280_pressure;Samples;Min_cycle;Max_cycle;Signal;HPM_P1;HPM_P2
2021/01/15 00:01:09;;;;;;;10.13;4.65;;;-1.50;99.90;;;;;;5029241;28;20442;-67
2021/01/15 00:03:39;;;;;;;14.50;5.00;;;-1.50;99.90;;;;;;5030847;28;20099;-67
2021/01/15 00:06:06;;;;;;;17.10;4.65;;;-1.60;99.90;;;;;;5024477;28;20837;-67
2021/01/15 00:08:40;;;;;;;13.48;4.38;;;-1.60;99.90;;;;;;5027818;28;20037;-67
2021/01/15 00:11:24;;;;;;;10.65;3.10;;;-1.60;99.90;;;;;;5029815;28;20040;-67
2021/01/15 00:13:52;;;;;;;9.82;3.53;;;-1.60;99.90;;;;;;5018492;28;20089;-67
2021/01/15 00:16:32;;;;;;;8.82;2.95;;;-1.60;99.90;;;;;;5030012;28;20400;-67
2021/01/15 00:19:01;;;;;;;7.20;2.00;;;-1.70;99.90;;;;;;5031138;28;20068;-67
2021/01/15 00:21:32;;;;;;;12.50;2.90;;;-1.70;99.90;;;;;;5031474;28;20053;-67
2021/01/15 00:24:01;;;;;;;8.48;2.42;;;-1.70;99.90;;;;;;5012039;28;20053;-67
2021/01/15 00:26:29;;;;;;;9.18;2.53;;;-1.70;99.90;;;;;;5030716;28;20052;-67
2021/01/15 00:28:56;;;;;;;10.00;2.88;;;-1.70;99.90;;;;;;5031321;28;20046;-67
2021/01/15 00:31:36;;;;;;;8.60;2.40;;;-1.80;99.90;;;;;;5028672;28;20095;-67
2021/01/15 00:34:05;;;;;;;12.00;2.63;;;-1.80;99.90;;;;;;5031670;28;20042;-67
2021/01/15 00:36:31;;;;;;;7.65;2.03;;;-1.80;99.90;;;;;;5027235;28;20046;-67
2021/01/15 00:38:58;;;;;;;6.25;1.65;;;-1.80;99.80;;;;;;5024742;28;20050;-67
2021/01/15 00:41:25;;;;;;;9.15;2.20;;;-1.70;99.40;;;;;;5026518;28;20878;-67
2021/01/15 00:43:51;;;;;;;8.15;3.05;;;-1.70;99.50;;;;;;5027763;28;20029;-67
2021/01/15 00:47:04;;;;;;;8.10;1.73;;;-1.70;99.10;;;;;;5008803;28;20044;-67
2021/01/15 00:49:09;;;;;;;6.85;2.00;;;-1.70;98.90;;;;;;5024596;28;20095;-67
2021/01/15 00:51:45;;;;;;;6.90;2.10;;;-1.70;98.90;;;;;;5028574;28;20103;-67
2021/01/15 00:54:12;;;;;;;8.93;1.90;;;-1.70;99.70;;;;;;5043198;28;20061;-67
2021/01/15 00:56:38;;;;;;;5.70;1.27;;;-1.70;99.60;;;;;;5020787;28;20053;-67
2021/01/15 00:59:10;;;;;;;5.45;1.58;;;-1.60;99.90;;;;;;5026749;28;20051;-67
2021/01/15 01:01:47;;;;;;;12.27;2.83;;;-1.60;99.70;;;;;;5028201;28;20046;-67
2021/01/15 01:04:14;;;;;;;6.80;1.80;;;-1.60;99.80;;;;;;5024057;28;20061;-67
2021/01/15 01:06:41;;;;;;;6.68;1.88;;;-1.50;99.60;;;;;;5017446;28;20527;-67
2021/01/15 01:09:07;;;;;;;9.23;2.10;;;-1.40;99.70;;;;;;5024059;28;20049;-67
2021/01/15 01:11:34;;;;;;;5.65;2.13;;;-1.30;99.80;;;;;;5029535;28;20041;-67
2021/01/15 01:14:03;;;;;;;10.30;2.10;;;-1.30;99.90;;;;;;5028272;28;20046;-67
2021/01/15 01:16:31;;;;;;;7.72;2.28;;;-1.20;99.90;;;;;;5030468;28;20048;-67
2021/01/15 01:18:58;;;;;;;9.70;1.90;;;-1.20;99.90;;;;;;5031509;28;20053;-67
2021/01/15 01:21:27;;;;;;;12.23;2.75;;;-1.10;99.90;;;;;;5029820;28;20180;-67
2021/01/15 01:23:54;;;;;;;9.65;1.73;;;-1.00;99.90;;;;;;5027818;28;20051;-67
2021/01/15 01:26:20;;;;;;;12.00;3.75;;;-0.90;99.90;;;;;;5020556;28;20591;-67
2021/01/15 01:28:47;;;;;;;11.65;2.65;;;-0.90;99.90;;;;;;5028944;28;20087;-67
2021/01/15 01:31:15;;;;;;;11.40;2.85;;;-0.80;99.90;;;;;;5028499;28;20042;-67
2021/01/15 01:33:42;;;;;;;12.85;3.35;;;-0.70;99.90;;;;;;5025522;28;20096;-67
2021/01/15 01:36:10;;;;;;;11.27;2.45;;;-0.70;99.90;;;;;;5018737;28;20033;-67
2021/01/15 01:38:38;;;;;;;10.43;2.80;;;-0.60;99.90;;;;;;5028939;28;20046;-67
2021/01/15 01:41:05;;;;;;;9.30;2.33;;;-0.50;99.90;;;;;;5024475;28;20120;-68
2021/01/15 01:43:32;;;;;;;11.60;3.08;;;-0.50;99.90;;;;;;5030609;28;20049;-67
2021/01/15 01:46:02;;;;;;;8.82;3.10;;;-0.50;99.90;;;;;;5032198;28;20056;-67
2021/01/15 01:48:29;;;;;;;8.15;3.03;;;-0.40;99.90;;;;;;5033276;28;20125;-67
2021/01/15 01:50:55;;;;;;;13.20;4.18;;;-0.40;99.90;;;;;;5032298;28;20447;-67
2021/01/15 01:53:28;;;;;;;11.25;2.97;;;-0.40;99.90;;;;;;5032824;28;20092;-67
2021/01/15 01:55:55;;;;;;;11.95;3.28;;;-0.40;99.90;;;;;;5029842;28;20049;-67
2021/01/15 01:58:23;;;;;;;10.75;3.92;;;-0.30;99.90;;;;;;5032873;28;20061;-67
2021/01/15 02:00:58;;;;;;;11.52;3.53;;;-0.30;99.90;;;;;;5036264;28;20057;-68
2021/01/15 02:03:25;;;;;;;11.07;3.58;;;-0.30;99.90;;;;;;5028665;28;20071;-67
2021/01/15 02:05:52;;;;;;;14.10;4.22;;;-0.30;99.90;;;;;;5032808;28;20443;-68
2021/01/15 02:08:18;;;;;;;15.00;4.30;;;-0.30;99.90;;;;;;5032058;28;20048;-67
2021/01/15 02:11:23;;;;;;;11.63;3.30;;;-0.40;99.90;;;;;;5030952;28;20049;-67
2021/01/15 02:13:58;;;;;;;16.52;4.80;;;-0.40;99.90;;;;;;5030931;28;20065;-67
2021/01/15 02:16:28;;;;;;;14.30;4.03;;;-0.40;99.90;;;;;;5031176;28;20053;-67
2021/01/15 02:19:24;;;;;;;16.13;4.15;;;-0.40;99.90;;;;;;5033475;28;20048;-67
2021/01/15 02:22:30;;;;;;;12.55;3.72;;;-0.40;99.90;;;;;;5032606;28;20050;-67
2021/01/15 02:25:22;;;;;;;15.43;5.47;;;-0.50;99.90;;;;;;5012754;28;20058;-68
2021/01/15 02:28:13;;;;;;;13.68;3.78;;;-0.50;99.90;;;;;;5030186;28;20049;-67
2021/01/15 02:30:39;;;;;;;14.45;4.85;;;-0.60;99.90;;;;;;5014040;28;20061;-67
2021/01/15 02:33:40;;;;;;;14.48;3.95;;;-0.60;99.90;;;;;;5029512;28;20049;-67
2021/01/15 02:36:15;;;;;;;13.18;4.15;;;-0.70;99.90;;;;;;5029614;28;20591;-67
2021/01/15 02:39:10;;;;;;;10.80;3.95;;;-0.60;99.90;;;;;;5027858;28;20157;-67
2021/01/15 02:41:38;;;;;;;20.55;5.55;;;-0.70;99.90;;;;;;5012867;28;20551;-67
2021/01/15 02:44:05;;;;;;;12.18;4.30;;;-0.70;99.90;;;;;;5028343;28;20052;-67
2021/01/15 02:46:58;;;;;;;14.40;4.63;;;-0.70;99.90;;;;;;5013813;28;20041;-66
2021/01/15 02:49:25;;;;;;;13.05;4.35;;;-0.80;99.90;;;;;;5013916;28;20037;-67
2021/01/15 02:51:53;;;;;;;17.25;5.00;;;-0.70;99.90;;;;;;5028184;28;20045;-67
2021/01/15 02:54:20;;;;;;;17.00;5.05;;;-0.70;99.90;;;;;;5029258;28;20468;-67
2021/01/15 02:56:47;;;;;;;13.10;4.00;;;-0.70;99.90;;;;;;5028984;28;20061;-67
2021/01/15 02:59:13;;;;;;;13.75;4.63;;;-0.70;99.90;;;;;;5030319;28;20447;-66
2021/01/15 03:02:03;;;;;;;15.90;5.20;;;-0.70;99.90;;;;;;5029589;28;20065;-66
2021/01/15 03:04:53;;;;;;;19.45;7.28;;;-0.70;99.90;;;;;;5032266;28;20386;-66
2021/01/15 03:07:21;;;;;;;21.45;6.35;;;-0.70;99.90;;;;;;5046480;28;20045;-67
2021/01/15 03:09:52;;;;;;;18.63;6.05;;;-0.70;99.90;;;;;;5029941;28;20041;-68
2021/01/15 03:12:19;;;;;;;19.52;6.05;;;-0.70;99.90;;;;;;5032300;28;20054;-67
2021/01/15 03:14:47;;;;;;;18.23;5.90;;;-0.80;99.90;;;;;;5030737;28;20049;-67
2021/01/15 03:17:16;;;;;;;17.60;5.28;;;-0.70;99.90;;;;;;5025837;28;20046;-67
2021/01/15 03:19:43;;;;;;;43.50;12.23;;;-0.80;99.90;;;;;;5022049;28;20042;-67
2021/01/15 03:22:14;;;;;;;21.92;8.15;;;-0.70;99.90;;;;;;5033275;28;20045;-67
2021/01/15 03:24:54;;;;;;;226.70;60.83;;;-0.70;99.90;;;;;;5031396;28;20045;-67
2021/01/15 03:27:21;;;;;;;38.58;14.35;;;-0.70;99.90;;;;;;5026641;28;20103;-67
2021/01/15 03:29:48;;;;;;;21.05;7.28;;;-0.70;99.90;;;;;;5030885;28;20746;-67
2021/01/15 03:32:15;;;;;;;16.08;5.30;;;-0.70;99.90;;;;;;5025835;28;20042;-67
2021/01/15 03:34:42;;;;;;;16.00;4.80;;;-0.70;99.90;;;;;;5027655;28;20041;-67
2021/01/15 03:37:09;;;;;;;15.48;4.90;;;-0.70;99.90;;;;;;5029083;28;20763;-67
2021/01/15 03:39:36;;;;;;;19.98;6.43;;;-0.70;99.90;;;;;;5032576;28;20501;-67
2021/01/15 03:42:02;;;;;;;18.88;7.50;;;-0.70;99.90;;;;;;5032630;28;20041;-67
2021/01/15 03:44:29;;;;;;;38.03;13.88;;;-0.70;99.90;;;;;;5030694;28;20095;-67
2021/01/15 03:46:56;;;;;;;20.33;8.27;;;-0.50;99.90;;;;;;5025665;28;20054;-67
2021/01/15 03:49:23;;;;;;;18.90;8.07;;;-0.50;99.90;;;;;;5028087;28;20425;-67
2021/01/15 03:51:50;;;;;;;27.75;10.50;;;-0.50;99.90;;;;;;5031053;28;20489;-67
2021/01/15 03:54:17;;;;;;;17.85;6.82;;;-0.50;99.90;;;;;;5030928;28;20396;-67
2021/01/15 03:56:43;;;;;;;20.55;6.85;;;-0.50;99.90;;;;;;5026333;28;20362;-67
2021/01/15 03:59:10;;;;;;;16.42;7.03;;;-0.40;99.90;;;;;;5042709;28;20061;-67
2021/01/15 04:01:37;;;;;;;14.88;5.60;;;-0.40;99.90;;;;;;5023577;28;20060;-67
2021/01/15 04:04:04;;;;;;;15.07;4.28;;;-0.40;99.90;;;;;;5033800;28;20041;-67
2021/01/15 04:06:30;;;;;;;19.98;5.50;;;-0.40;99.90;;;;;;5027262;28;20053;-67
2021/01/15 04:08:57;;;;;;;21.40;5.28;;;-0.30;99.90;;;;;;5029892;28;20479;-67
2021/01/15 04:11:24;;;;;;;15.73;4.90;;;-0.40;99.90;;;;;;5031157;28;20045;-67
2021/01/15 04:13:50;;;;;;;18.02;5.88;;;-0.40;99.90;;;;;;5032523;28;20034;-67
2021/01/15 04:16:17;;;;;;;18.27;6.05;;;-0.40;99.90;;;;;;5030828;28;20095;-67
2021/01/15 04:18:43;;;;;;;16.95;6.05;;;-0.50;99.90;;;;;;5030835;28;20045;-67
2021/01/15 04:21:15;;;;;;;10.75;4.68;;;-0.50;99.90;;;;;;5031968;28;20057;-67
2021/01/15 04:23:46;;;;;;;15.05;4.80;;;-0.60;99.90;;;;;;5023360;28;20047;-67
2021/01/15 04:26:17;;;;;;;13.77;5.13;;;-0.60;99.90;;;;;;5022693;28;20464;-67
2021/01/15 04:28:44;;;;;;;20.67;5.93;;;-0.70;99.90;;;;;;5028223;28;20382;-67
2021/01/15 04:31:17;;;;;;;19.13;5.80;;;-0.70;99.90;;;;;;5029332;28;20042;-68
2021/01/15 04:33:45;;;;;;;29.95;14.32;;;-0.70;99.90;;;;;;5028983;28;20069;-67
2021/01/15 04:36:12;;;;;;;45.83;23.80;;;-0.80;99.90;;;;;;5028155;28;20045;-67
2021/01/15 04:38:40;;;;;;;42.28;21.00;;;-0.80;99.90;;;;;;5030129;28;20053;-67
2021/01/15 04:41:07;;;;;;;23.45;9.77;;;-0.90;99.90;;;;;;5029132;28;20053;-67
2021/01/15 04:43:38;;;;;;;17.13;7.55;;;-0.90;99.90;;;;;;5028804;28;20048;-67
2021/01/15 04:46:06;;;;;;;15.93;6.43;;;-0.90;99.90;;;;;;5025493;28;20041;-67
2021/01/15 04:48:40;;;;;;;15.50;5.57;;;-0.90;99.90;;;;;;5029427;28;20161;-67
2021/01/15 04:51:13;;;;;;;17.65;5.32;;;-1.00;99.90;;;;;;5028855;28;20046;-67
2021/01/15 04:53:49;;;;;;;15.98;5.03;;;-1.00;99.90;;;;;;5024901;28;20096;-67
2021/01/15 04:56:16;;;;;;;16.52;5.97;;;-1.00;99.90;;;;;;5028202;28;20425;-67
2021/01/15 04:58:47;;;;;;;14.20;6.05;;;-1.00;99.90;;;;;;5026618;28;20041;-67
2021/01/15 05:01:16;;;;;;;15.45;5.82;;;-1.00;99.90;;;;;;5027920;28;20045;-67
2021/01/15 05:03:46;;;;;;;14.52;5.53;;;-1.10;99.90;;;;;;5026941;28;20643;-67
2021/01/15 05:06:20;;;;;;;17.33;5.80;;;-1.10;99.90;;;;;;5010714;28;20053;-67
2021/01/15 05:08:49;;;;;;;20.63;7.35;;;-1.20;99.90;;;;;;5033944;28;20046;-67
2021/01/15 05:11:17;;;;;;;18.45;6.55;;;-1.20;99.90;;;;;;5029521;28;20104;-68
2021/01/15 05:13:44;;;;;;;16.70;7.30;;;-1.20;99.90;;;;;;5012929;28;20064;-67
2021/01/15 05:16:11;;;;;;;18.52;6.95;;;-1.20;99.90;;;;;;5029186;28;20040;-67
2021/01/15 05:18:43;;;;;;;15.55;6.88;;;-1.30;99.90;;;;;;5028145;28;20150;-67
2021/01/15 05:21:10;;;;;;;25.92;9.15;;;-1.30;99.90;;;;;;5026498;28;20500;-67
2021/01/15 05:23:36;;;;;;;33.17;10.65;;;-1.40;99.90;;;;;;5027782;28;20079;-67
2021/01/15 05:26:03;;;;;;;31.73;10.93;;;-1.40;99.90;;;;;;5025985;28;20045;-67
2021/01/15 05:28:29;;;;;;;32.60;10.38;;;-1.30;99.90;;;;;;5029135;28;20104;-67
2021/01/15 05:30:57;;;;;;;31.52;10.30;;;-1.40;99.90;;;;;;5028617;28;20045;-67
2021/01/15 05:33:25;;;;;;;41.10;11.50;;;-1.40;99.90;;;;;;5026750;28;20046;-67
2021/01/15 05:35:53;;;;;;;34.50;12.23;;;-1.40;99.90;;;;;;5026623;28;20046;-67
2021/01/15 05:38:22;;;;;;;31.55;9.43;;;-1.30;99.90;;;;;;5025709;28;20052;-67
2021/01/15 05:40:56;;;;;;;35.85;11.15;;;-1.30;99.90;;;;;;5012099;28;20049;-67
2021/01/15 05:43:31;;;;;;;28.50;9.18;;;-1.30;99.90;;;;;;5006970;28;20042;-67
2021/01/15 05:46:18;;;;;;;25.17;8.48;;;-1.20;99.90;;;;;;5016368;28;20053;-67
2021/01/15 05:48:53;;;;;;;21.90;7.97;;;-1.20;99.90;;;;;;5016806;28;20129;-67
2021/01/15 05:51:32;;;;;;;26.25;10.07;;;-1.10;99.90;;;;;;5029706;28;20528;-67
2021/01/15 05:54:00;;;;;;;20.55;6.00;;;-1.10;99.90;;;;;;5027882;28;20539;-67
2021/01/15 05:56:47;;;;;;;20.00;6.50;;;-1.10;99.90;;;;;;5029382;28;20042;-67
2021/01/15 05:59:15;;;;;;;22.23;7.95;;;-1.10;99.90;;;;;;5026211;28;20046;-67
2021/01/15 06:01:49;;;;;;;22.00;7.47;;;-1.10;99.90;;;;;;5025072;28;20042;-67
2021/01/15 06:04:31;;;;;;;22.20;7.47;;;-1.10;99.90;;;;;;5028062;28;20057;-67
2021/01/15 06:07:17;;;;;;;20.83;6.65;;;-1.10;99.90;;;;;;5019450;28;20107;-67
2021/01/15 06:09:45;;;;;;;20.95;6.70;;;-1.10;99.90;;;;;;5023801;28;20054;-67
2021/01/15 06:12:18;;;;;;;18.90;6.80;;;-1.00;99.90;;;;;;5027505;28;20465;-67
2021/01/15 06:14:49;;;;;;;20.45;7.78;;;-1.00;99.90;;;;;;5029572;28;20511;-67
2021/01/15 06:17:18;;;;;;;18.50;7.50;;;-1.00;99.90;;;;;;5017466;28;20095;-67
2021/01/15 06:19:55;;;;;;;22.73;7.05;;;-1.00;99.90;;;;;;5027502;28;20045;-67
2021/01/15 06:22:30;;;;;;;21.27;6.00;;;-1.00;99.90;;;;;;5040621;28;20144;-67
2021/01/15 06:25:09;;;;;;;24.40;7.97;;;-1.00;99.90;;;;;;5028031;28;20049;-67
2021/01/15 06:27:40;;;;;;;31.70;10.82;;;-1.00;99.90;;;;;;5027295;28;20136;-67
2021/01/15 06:30:19;;;;;;;29.00;9.70;;;-1.10;99.90;;;;;;5031253;28;20049;-67
2021/01/15 06:32:47;;;;;;;32.45;9.88;;;-1.10;99.90;;;;;;5030794;28;20103;-67
2021/01/15 06:35:31;;;;;;;32.95;9.40;;;-1.10;99.90;;;;;;5032642;28;20103;-67
2021/01/15 06:38:03;;;;;;;40.58;10.80;;;-1.10;99.90;;;;;;5026522;28;20116;-67
2021/01/15 06:40:42;;;;;;;41.73;13.53;;;-1.10;99.90;;;;;;5032063;28;20056;-67
2021/01/15 06:43:13;;;;;;;39.30;12.68;;;-1.10;99.90;;;;;;5030772;28;20045;-67
2021/01/15 06:45:48;;;;;;;33.03;9.52;;;-1.10;99.90;;;;;;5030578;28;20056;-67
2021/01/15 06:48:24;;;;;;;24.27;8.30;;;-1.10;99.90;;;;;;5022419;28;20038;-67
2021/01/15 06:50:53;;;;;;;31.67;9.80;;;-1.10;99.90;;;;;;5030581;28;20045;-67
2021/01/15 06:53:25;;;;;;;30.40;9.52;;;-1.10;99.90;;;;;;5028965;28;20075;-67
2021/01/15 06:56:03;;;;;;;29.73;9.00;;;-1.10;99.90;;;;;;5019723;28;20131;-67
2021/01/15 06:58:40;;;;;;;38.83;14.60;;;-1.00;99.90;;;;;;5025423;28;20049;-67
2021/01/15 07:01:24;;;;;;;28.73;10.40;;;-1.00;99.90;;;;;;5027036;28;20056;-67
2021/01/15 07:04:05;;;;;;;23.85;6.95;;;-1.00;99.90;;;;;;5027558;28;20636;-67
2021/01/15 07:06:33;;;;;;;21.55;7.75;;;-1.00;99.90;;;;;;5028753;28;20515;-67
2021/01/15 07:09:05;;;;;;;19.00;6.55;;;-1.00;99.90;;;;;;5031533;28;20496;-67
2021/01/15 07:11:32;;;;;;;18.35;7.32;;;-0.90;99.90;;;;;;5030401;28;20034;-65
2021/01/15 07:14:01;;;;;;;24.10;9.00;;;-0.90;99.90;;;;;;5024802;28;20046;-65
2021/01/15 07:16:38;;;;;;;18.33;6.80;;;-0.90;99.90;;;;;;5026665;28;20045;-65
2021/01/15 07:19:05;;;;;;;21.60;7.93;;;-0.90;99.90;;;;;;5032171;28;20049;-65
2021/01/15 07:21:39;;;;;;;32.67;11.05;;;-0.80;99.90;;;;;;5027597;28;20053;-66
2021/01/15 07:24:10;;;;;;;30.50;9.82;;;-0.70;99.90;;;;;;5030620;28;20057;-65
2021/01/15 07:26:41;;;;;;;23.75;8.48;;;-0.70;99.90;;;;;;5028003;28;20041;-64
2021/01/15 07:29:14;;;;;;;35.20;12.25;;;-0.50;99.90;;;;;;5029836;28;20042;-65
2021/01/15 07:31:44;;;;;;;23.13;8.98;;;-0.40;99.90;;;;;;5029968;28;20513;-64
2021/01/15 07:34:17;;;;;;;19.85;7.22;;;-0.20;99.90;;;;;;5032869;28;20054;-64
2021/01/15 07:36:44;;;;;;;26.55;9.57;;;0.00;99.90;;;;;;5021522;28;20343;-65
2021/01/15 07:39:14;;;;;;;25.80;7.95;;;0.10;99.90;;;;;;5030279;28;20076;-65
2021/01/15 07:41:55;;;;;;;28.20;9.52;;;0.30;99.90;;;;;;5029658;28;20060;-66
2021/01/15 07:44:24;;;;;;;17.83;6.30;;;0.50;99.90;;;;;;5029303;28;20049;-64
2021/01/15 07:46:58;;;;;;;19.20;6.18;;;0.70;99.90;;;;;;5027226;28;20041;-64
2021/01/15 07:49:41;;;;;;;20.83;7.10;;;0.80;99.90;;;;;;5029165;28;20041;-65
2021/01/15 07:52:08;;;;;;;17.13;6.87;;;0.90;99.90;;;;;;5029274;28;20049;-65
2021/01/15 07:54:49;;;;;;;17.85;5.93;;;0.90;99.90;;;;;;5027676;28;20295;-64
2021/01/15 07:57:17;;;;;;;16.80;5.55;;;1.00;99.90;;;;;;5025414;28;20527;-66
2021/01/15 07:59:44;;;;;;;14.40;5.32;;;1.10;99.90;;;;;;5030166;28;20052;-64
2021/01/15 08:02:11;;;;;;;16.25;5.40;;;1.20;99.90;;;;;;5027527;28;20057;-64
2021/01/15 08:04:37;;;;;;;15.48;6.22;;;1.30;99.90;;;;;;5028250;28;20045;-64
2021/01/15 08:07:14;;;;;;;12.60;4.72;;;1.30;99.90;;;;;;5020031;28;20050;-64
2021/01/15 08:09:42;;;;;;;19.67;6.20;;;1.30;99.50;;;;;;5008957;28;20045;-64
2021/01/15 08:12:09;;;;;;;17.35;5.60;;;1.40;98.80;;;;;;5029833;28;20056;-64
2021/01/15 08:14:35;;;;;;;18.02;6.20;;;1.40;98.30;;;;;;5030708;28;20038;-64
2021/01/15 08:17:10;;;;;;;21.10;8.85;;;1.40;97.70;;;;;;5030450;28;20045;-64
2021/01/15 08:19:41;;;;;;;15.93;4.80;;;1.50;96.90;;;;;;5028838;28;20443;-65
2021/01/15 08:22:13;;;;;;;12.30;4.35;;;1.50;95.10;;;;;;5025052;28;20049;-64
2021/01/15 08:24:44;;;;;;;13.10;4.07;;;1.50;95.30;;;;;;5019996;28;20041;-64
2021/01/15 08:27:21;;;;;;;11.20;3.88;;;1.50;94.10;;;;;;5025235;28;20492;-63
2021/01/15 08:29:50;;;;;;;12.00;3.95;;;1.60;94.10;;;;;;5027725;28;20045;-64
2021/01/15 08:32:17;;;;;;;16.27;4.10;;;1.50;93.50;;;;;;5028862;28;20370;-65
2021/01/15 08:34:44;;;;;;;16.70;5.07;;;1.60;94.20;;;;;;5027558;28;20068;-65
2021/01/15 08:37:15;;;;;;;14.32;5.13;;;1.60;93.60;;;;;;5026287;28;20049;-65
2021/01/15 08:39:48;;;;;;;13.18;4.68;;;1.70;93.70;;;;;;5022337;28;20810;-64
2021/01/15 08:42:15;;;;;;;15.60;4.75;;;1.70;93.20;;;;;;5024717;28;20416;-64
2021/01/15 08:44:45;;;;;;;21.02;7.80;;;1.70;92.90;;;;;;5026437;28;20053;-63
2021/01/15 08:47:13;;;;;;;29.70;12.60;;;1.70;92.10;;;;;;5027190;28;20057;-63
2021/01/15 08:49:52;;;;;;;18.67;8.23;;;1.70;92.00;;;;;;5027940;28;20051;-64
2021/01/15 08:52:23;;;;;;;12.55;4.40;;;1.90;92.40;;;;;;5026749;28;20045;-64
2021/01/15 08:54:52;;;;;;;33.00;9.25;;;1.90;91.30;;;;;;5029651;28;20087;-64
2021/01/15 08:57:20;;;;;;;15.68;5.88;;;1.90;90.60;;;;;;5027108;28;20042;-63
2021/01/15 08:59:46;;;;;;;15.30;4.78;;;1.80;90.20;;;;;;5026541;28;20416;-63
2021/01/15 09:02:17;;;;;;;13.70;5.47;;;1.90;90.40;;;;;;5022885;28;20041;-63
2021/01/15 09:04:44;;;;;;;12.80;5.22;;;1.90;90.30;;;;;;5025911;28;20092;-64
2021/01/15 09:07:11;;;;;;;11.82;4.85;;;2.00;88.90;;;;;;5038604;28;20052;-63
2021/01/15 09:09:39;;;;;;;15.05;6.05;;;2.10;90.00;;;;;;5042668;28;20052;-62
2021/01/15 09:12:08;;;;;;;12.98;5.43;;;2.20;87.20;;;;;;5025166;28;20428;-62
2021/01/15 09:14:38;;;;;;;12.13;3.00;;;2.20;85.90;;;;;;5025251;28;20061;-62
2021/01/15 09:17:07;;;;;;;12.45;3.75;;;2.30;86.20;;;;;;5024599;28;20060;-62
2021/01/15 09:19:35;;;;;;;9.48;2.83;;;2.40;86.40;;;;;;5024394;28;20651;-64
2021/01/15 09:22:07;;;;;;;13.00;3.75;;;2.50;85.00;;;;;;5020349;28;20107;-65
2021/01/15 09:24:35;;;;;;;10.10;4.00;;;2.60;83.90;;;;;;5017856;28;20072;-63
2021/01/15 09:27:07;;;;;;;13.30;4.30;;;2.60;83.10;;;;;;5022332;28;20041;-63
2021/01/15 09:29:34;;;;;;;10.63;3.72;;;2.60;81.30;;;;;;5027045;28;20041;-64
2021/01/15 09:32:02;;;;;;;8.48;2.90;;;2.60;81.40;;;;;;5020325;28;20045;-64
2021/01/15 09:34:29;;;;;;;10.25;3.53;;;2.60;79.70;;;;;;5019988;28;20046;-64
2021/01/15 09:36:56;;;;;;;12.95;4.15;;;2.70;81.30;;;;;;5014765;28;20104;-64
2021/01/15 09:39:25;;;;;;;9.05;3.50;;;2.60;79.70;;;;;;5024805;28;20041;-64
2021/01/15 09:41:57;;;;;;;13.73;4.05;;;2.60;78.60;;;;;;5018370;28;20627;-63
2021/01/15 09:44:28;;;;;;;11.38;3.97;;;2.60;78.30;;;;;;5024138;28;20148;-63
2021/01/15 09:47:00;;;;;;;9.45;3.40;;;2.60;77.90;;;;;;5023969;28;20044;-62
2021/01/15 09:49:28;;;;;;;12.93;3.30;;;2.50;78.80;;;;;;5025254;28;20075;-63
2021/01/15 09:51:54;;;;;;;8.02;3.28;;;2.60;78.60;;;;;;5018104;28;20084;-63
2021/01/15 09:54:21;;;;;;;6.13;2.20;;;2.80;77.70;;;;;;5026223;28;20041;-63
2021/01/15 09:56:47;;;;;;;9.05;3.20;;;2.80;74.90;;;;;;5022991;28;20092;-63
2021/01/15 09:59:16;;;;;;;7.85;3.42;;;2.80;74.50;;;;;;5017514;28;20129;-63
2021/01/15 10:01:43;;;;;;;9.10;2.80;;;2.80;75.50;;;;;;5018428;28;20060;-63
2021/01/15 10:04:10;;;;;;;7.80;2.15;;;3.00;74.30;;;;;;5018094;28;20739;-63
2021/01/15 10:06:46;;;;;;;10.65;2.90;;;3.00;73.70;;;;;;5026453;28;20509;-63
2021/01/15 10:09:14;;;;;;;11.15;3.78;;;3.20;75.00;;;;;;5028445;28;20041;-62
2021/01/15 10:11:50;;;;;;;9.57;3.25;;;3.20;71.40;;;;;;5024915;28;20637;-62
2021/01/15 10:14:17;;;;;;;10.25;3.03;;;3.30;73.30;;;;;;5016128;28;20057;-63
2021/01/15 10:16:47;;;;;;;10.15;2.55;;;3.40;73.50;;;;;;5006522;28;20057;-63
2021/01/15 10:19:15;;;;;;;9.10;2.70;;;3.50;72.40;;;;;;5017524;28;20069;-62
2021/01/15 10:21:41;;;;;;;10.23;2.88;;;3.60;71.40;;;;;;5024757;28;20053;-64
2021/01/15 10:24:10;;;;;;;8.30;2.83;;;3.70;71.80;;;;;;5021597;28;20050;-64
2021/01/15 10:26:37;;;;;;;8.02;2.72;;;3.80;71.20;;;;;;5045294;28;20053;-64
2021/01/15 10:29:10;;;;;;;11.65;4.32;;;4.00;70.90;;;;;;5023099;28;20046;-64
2021/01/15 10:31:50;;;;;;;6.93;2.95;;;4.00;69.00;;;;;;5026169;28;20885;-64
2021/01/15 10:34:18;;;;;;;7.38;2.35;;;3.90;68.80;;;;;;5025059;28;20853;-64
2021/01/15 10:36:45;;;;;;;12.60;3.17;;;3.70;69.20;;;;;;5024435;28;20409;-64
2021/01/15 10:39:13;;;;;;;11.43;3.63;;;3.40;69.60;;;;;;5025040;28;20109;-64
2021/01/15 10:41:42;;;;;;;7.00;2.47;;;3.40;70.60;;;;;;5026288;28;20121;-64
2021/01/15 10:44:10;;;;;;;8.90;2.22;;;3.30;70.90;;;;;;5023878;28;20045;-63
2021/01/15 10:46:42;;;;;;;9.05;2.47;;;3.20;71.40;;;;;;5024703;28;20045;-63
2021/01/15 10:49:13;;;;;;;8.13;2.92;;;3.20;71.30;;;;;;5023799;28;20121;-63
2021/01/15 11:09:15;;;;;;;10.07;2.22;;;3.20;71.30;;;;;;5018110;28;20071;-63
2021/01/15 11:11:56;;;;;;;8.40;2.65;;;3.40;69.90;;;;;;5021616;28;20133;-64
2021/01/15 11:14:24;;;;;;;7.78;1.98;;;3.30;68.80;;;;;;5007713;28;20075;-64
2021/01/15 11:16:51;;;;;;;8.15;2.75;;;3.30;69.10;;;;;;5019854;28;20076;-64
2021/01/15 11:19:18;;;;;;;7.07;2.50;;;3.40;68.90;;;;;;5025964;28;20056;-64
2021/01/15 11:21:45;;;;;;;10.05;3.30;;;3.50;69.00;;;;;;5028616;28;20037;-63
2021/01/15 11:24:11;;;;;;;7.57;3.00;;;3.50;68.10;;;;;;5023004;28;20068;-64
2021/01/15 11:26:38;;;;;;;12.45;3.10;;;3.60;68.60;;;;;;5030399;28;20558;-63
2021/01/15 11:29:13;;;;;;;11.25;3.20;;;3.60;68.80;;;;;;5021361;28;20397;-63
2021/01/15 11:31:40;;;;;;;9.60;2.97;;;3.50;67.90;;;;;;5021782;28;20054;-63
2021/01/15 11:34:07;;;;;;;9.10;2.83;;;3.30;68.50;;;;;;5028173;28;20621;-63
2021/01/15 11:36:34;;;;;;;9.52;2.60;;;3.30;68.10;;;;;;5030467;28;20034;-62
2021/01/15 11:39:04;;;;;;;6.05;2.15;;;3.20;68.10;;;;;;5031224;28;20037;-62
2021/01/15 11:41:30;;;;;;;8.75;2.80;;;3.20;68.60;;;;;;5018977;28;20373;-63
2021/01/15 11:43:57;;;;;;;12.63;3.70;;;3.20;68.90;;;;;;5023382;28;20458;-63
2021/01/15 11:46:28;;;;;;;11.05;3.47;;;3.30;68.70;;;;;;5022661;28;20049;-63
2021/01/15 11:48:55;;;;;;;8.18;2.65;;;3.30;68.90;;;;;;5026266;28;20401;-63
2021/01/15 11:51:22;;;;;;;6.88;2.13;;;3.30;68.20;;;;;;5021636;28;20045;-61
2021/01/15 11:53:49;;;;;;;7.65;2.78;;;3.30;68.50;;;;;;5019532;28;20049;-64
2021/01/15 11:56:16;;;;;;;10.85;3.70;;;3.30;69.10;;;;;;5007412;28;20082;-64
2021/01/15 11:58:43;;;;;;;9.30;3.00;;;3.30;69.20;;;;;;5108617;23;20611;-67
2021/01/15 12:01:10;;;;;;;9.15;3.25;;;3.30;68.20;;;;;;5007721;28;20446;-67
2021/01/15 12:03:36;;;;;;;18.02;7.10;;;3.30;68.40;;;;;;5010207;28;20046;-62
2021/01/15 12:06:37;;;;;;;8.32;3.22;;;3.40;68.50;;;;;;5699508;23;20032;31
2021/01/15 12:09:04;;;;;;;15.48;5.05;;;3.30;67.90;;;;;;4865244;29;20052;-64
2021/01/15 12:11:35;;;;;;;9.43;3.03;;;3.30;68.50;;;;;;4891335;29;20060;-64
2021/01/15 12:14:01;;;;;;;12.40;4.57;;;3.40;68.40;;;;;;4881945;29;20056;-63
2021/01/15 12:16:27;;;;;;;10.10;2.88;;;3.30;68.00;;;;;;4895639;29;20033;-63
2021/01/15 12:18:54;;;;;;;10.90;4.00;;;3.40;68.60;;;;;;4870891;29;20603;-63
2021/01/15 12:21:21;;;;;;;9.68;2.92;;;3.40;68.00;;;;;;4883695;29;20057;-63
2021/01/15 12:23:47;;;;;;;10.60;2.72;;;3.40;67.40;;;;;;4874350;29;20061;-64
2021/01/15 12:26:14;;;;;;;7.47;2.47;;;3.40;67.00;;;;;;4873091;29;20387;-67
2021/01/15 12:28:41;;;;;;;9.07;2.58;;;3.40;66.90;;;;;;4873285;29;20049;-62
2021/01/15 12:31:08;;;;;;;10.35;3.15;;;3.40;66.60;;;;;;4872844;29;20044;-63
2021/01/15 12:33:34;;;;;;;9.30;2.58;;;3.40;66.90;;;;;;4881111;29;20045;-65
2021/01/15 12:36:01;;;;;;;5.88;2.03;;;3.40;66.30;;;;;;4889371;29;20044;-64
2021/01/15 12:38:27;;;;;;;9.95;2.20;;;3.50;66.00;;;;;;4891622;29;20815;-65
2021/01/15 12:40:54;;;;;;;10.50;3.30;;;3.60;65.20;;;;;;4875828;29;20056;-64
2021/01/15 12:43:21;;;;;;;16.00;4.82;;;3.80;66.60;;;;;;4888827;29;20048;-64
2021/01/15 12:45:49;;;;;;;16.10;5.53;;;4.00;72.80;;;;;;4885781;29;20061;-64
2021/01/15 12:48:16;;;;;;;11.80;4.70;;;4.10;74.80;;;;;;4872213;29;20056;-65
2021/01/15 12:50:44;;;;;;;14.25;4.35;;;4.00;74.00;;;;;;4890624;29;20041;-65
2021/01/15 12:53:11;;;;;;;10.65;3.75;;;3.90;74.50;;;;;;4891566;29;20476;-64
2021/01/15 12:55:38;;;;;;;11.82;3.78;;;3.70;74.90;;;;;;4890711;29;20605;-66
2021/01/15 12:58:05;;;;;;;8.82;2.95;;;3.50;74.20;;;;;;4886764;29;20056;-65
2021/01/15 13:00:32;;;;;;;10.35;3.75;;;3.40;74.60;;;;;;4882860;29;20045;-64
2021/01/15 13:02:59;;;;;;;12.98;3.85;;;3.10;76.30;;;;;;4865528;29;20121;-64
2021/01/15 13:05:26;;;;;;;14.48;5.07;;;3.00;77.70;;;;;;4869498;29;20052;-66
2021/01/15 13:07:54;;;;;;;13.82;4.10;;;2.90;78.00;;;;;;4877355;29;20125;-63
2021/01/15 13:10:22;;;;;;;11.68;3.72;;;2.90;78.30;;;;;;4887487;29;20053;-64
2021/01/15 13:12:48;;;;;;;20.10;5.90;;;2.80;78.70;;;;;;4873119;29;20052;-65
2021/01/15 13:15:15;;;;;;;15.63;5.50;;;2.70;78.80;;;;;;4872258;29;20056;-63
2021/01/15 13:17:52;;;;;;;16.42;5.57;;;2.70;78.90;;;;;;4872689;29;20047;-64